createdAt,value
2023-11-30T00:00:48.721Z,1.55
2023-11-30T00:03:20.482Z,2.55
2023-11-30T00:05:52.207Z,2.70
2023-11-30T00:08:24.135Z,1.77
2023-11-30T00:10:55.706Z,2.55
2023-11-30T00:13:27.481Z,3.90
2023-11-30T00:15:59.053Z,2.05
2023-11-30T00:18:30.751Z,3.53
2023-11-30T00:21:02.515Z,0.85
2023-11-30T00:23:36.160Z,0.68
2023-11-30T00:26:07.811Z,2.25
2023-11-30T00:28:39.440Z,1.52
2023-11-30T00:31:11.150Z,2.58
2023-11-30T00:33:42.899Z,1.45
2023-11-30T00:36:14.553Z,1.75
2023-11-30T00:38:46.362Z,1.30
2023-11-30T00:41:18.240Z,1.65
2023-11-30T00:43:49.909Z,1.83
2023-11-30T00:46:21.495Z,1.42
2023-11-30T00:48:53.224Z,1.13
2023-11-30T00:51:24.953Z,2.15
2023-11-30T00:53:56.874Z,1.27
2023-11-30T00:56:28.472Z,2.75
2023-11-30T00:59:00.086Z,1.98
2023-11-30T01:01:31.916Z,2.70
2023-11-30T01:04:03.780Z,2.88
2023-11-30T01:06:35.893Z,1.35
2023-11-30T01:09:08.591Z,0.85
2023-11-30T01:11:44.879Z,1.30
2023-11-30T01:14:17.167Z,1.35
2023-11-30T01:16:48.868Z,0.68
2023-11-30T01:19:20.472Z,1.48
2023-11-30T01:21:52.194Z,1.33
2023-11-30T01:24:24.751Z,1.13
2023-11-30T01:26:56.361Z,1.17
2023-11-30T01:29:28.049Z,1.08
2023-11-30T01:32:00.016Z,2.90
2023-11-30T01:34:31.650Z,1.17
2023-11-30T01:37:03.272Z,1.10
2023-11-30T01:39:34.798Z,1.00
2023-11-30T01:42:06.613Z,2.50
2023-11-30T01:44:38.209Z,1.17
2023-11-30T01:47:10.064Z,1.27
2023-11-30T01:49:41.807Z,1.25
2023-11-30T01:52:13.400Z,1.15
2023-11-30T01:54:46.066Z,1.25
2023-11-30T01:57:17.996Z,1.88
2023-11-30T01:59:49.950Z,1.25
2023-11-30T02:02:21.966Z,2.13
2023-11-30T02:04:54.378Z,1.67
2023-11-30T02:07:25.974Z,2.03
2023-11-30T02:09:57.769Z,1.10
2023-11-30T02:12:29.455Z,2.05
2023-11-30T02:15:01.246Z,1.15
2023-11-30T02:17:33.017Z,2.63
2023-11-30T02:20:06.109Z,1.60
2023-11-30T02:22:37.835Z,1.00
2023-11-30T02:25:09.438Z,1.23
2023-11-30T02:27:41.134Z,1.75
2023-11-30T02:30:13.816Z,1.48
2023-11-30T02:32:45.511Z,1.45
2023-11-30T02:35:17.418Z,1.70
2023-11-30T02:37:48.988Z,1.38
2023-11-30T02:40:20.613Z,1.67
2023-11-30T02:42:52.325Z,2.10
2023-11-30T02:45:23.941Z,1.67
2023-11-30T02:47:55.581Z,0.95
2023-11-30T02:50:27.268Z,1.35
2023-11-30T02:52:58.949Z,1.90
2023-11-30T02:55:30.590Z,1.30
2023-11-30T02:58:02.233Z,1.05
2023-11-30T03:00:33.968Z,1.85
2023-11-30T03:03:05.713Z,1.77
2023-11-30T03:05:37.329Z,1.73
2023-11-30T03:08:09.144Z,2.47
2023-11-30T03:10:40.717Z,2.20
2023-11-30T03:13:12.459Z,0.65
2023-11-30T03:15:46.000Z,1.23
2023-11-30T03:18:17.652Z,0.80
2023-11-30T03:20:49.288Z,3.95
2023-11-30T03:23:20.833Z,1.98
2023-11-30T03:25:52.416Z,1.60
2023-11-30T03:28:23.950Z,0.82
2023-11-30T03:30:55.448Z,1.90
2023-11-30T03:33:27.001Z,1.95
2023-11-30T03:35:58.899Z,1.42
2023-11-30T03:38:30.727Z,2.28
2023-11-30T03:41:02.294Z,1.40
2023-11-30T03:43:33.851Z,1.00
2023-11-30T03:46:05.860Z,1.88
2023-11-30T03:48:37.476Z,0.63
2023-11-30T03:51:09.207Z,2.88
2023-11-30T03:53:40.845Z,1.50
2023-11-30T03:56:12.570Z,1.25
2023-11-30T03:58:44.127Z,0.77
2023-11-30T04:01:23.806Z,1.20
2023-11-30T04:03:55.448Z,0.57
2023-11-30T04:06:27.022Z,0.43
2023-11-30T04:09:00.445Z,1.10
2023-11-30T04:11:32.071Z,0.47
2023-11-30T04:14:08.628Z,0.80
2023-11-30T04:16:40.330Z,1.17
2023-11-30T04:19:11.904Z,1.58
2023-11-30T04:21:43.465Z,7.13
2023-11-30T04:24:17.074Z,2.33
2023-11-30T04:26:48.741Z,0.85
2023-11-30T04:29:20.456Z,0.88
2023-11-30T04:31:52.112Z,1.35
2023-11-30T04:34:23.758Z,1.73
2023-11-30T04:36:55.320Z,1.67
2023-11-30T04:39:26.906Z,0.60
2023-11-30T04:41:58.587Z,0.77
2023-11-30T04:44:30.386Z,1.55
2023-11-30T04:47:01.939Z,1.23
2023-11-30T04:49:33.687Z,1.10
2023-11-30T04:52:05.442Z,2.20
2023-11-30T04:54:39.195Z,1.27
2023-11-30T04:57:11.230Z,1.50
2023-11-30T04:59:42.809Z,2.35
2023-11-30T05:02:14.529Z,1.27
2023-11-30T05:04:46.248Z,2.10
2023-11-30T05:07:17.852Z,0.60
2023-11-30T05:09:49.441Z,1.52
2023-11-30T05:12:21.373Z,1.52
2023-11-30T05:14:52.964Z,0.93
2023-11-30T05:17:24.550Z,1.48
2023-11-30T05:19:56.688Z,0.50
2023-11-30T05:22:28.233Z,0.68
2023-11-30T05:24:59.716Z,1.40
2023-11-30T05:27:31.253Z,1.50
2023-11-30T05:30:04.531Z,2.80
2023-11-30T05:32:36.080Z,1.83
2023-11-30T05:35:08.476Z,1.25
2023-11-30T05:37:40.031Z,2.47
2023-11-30T05:40:12.794Z,1.40
2023-11-30T05:42:44.433Z,2.25
2023-11-30T05:45:16.049Z,1.13
2023-11-30T05:47:47.687Z,1.27
2023-11-30T05:50:20.282Z,2.25
2023-11-30T05:52:51.851Z,0.88
2023-11-30T05:55:23.402Z,2.00
2023-11-30T05:57:55.641Z,3.42
2023-11-30T06:00:27.839Z,2.47
2023-11-30T06:02:59.541Z,1.45
2023-11-30T06:05:31.220Z,2.78
2023-11-30T06:08:02.835Z,4.00
2023-11-30T06:10:34.415Z,2.50
2023-11-30T06:13:08.379Z,2.78
2023-11-30T06:15:40.045Z,2.30
2023-11-30T06:18:11.945Z,2.70
2023-11-30T06:20:43.557Z,4.10
2023-11-30T06:23:15.179Z,2.50
2023-11-30T06:25:46.701Z,3.05
2023-11-30T06:28:18.319Z,3.03
2023-11-30T06:30:49.913Z,2.70
2023-11-30T06:33:21.534Z,2.83
2023-11-30T06:35:53.101Z,4.22
2023-11-30T06:38:24.940Z,1.98
2023-11-30T06:40:56.490Z,3.05
2023-11-30T06:43:29.969Z,3.83
2023-11-30T06:46:01.525Z,2.95
2023-11-30T06:48:33.465Z,2.38
2023-11-30T06:51:08.007Z,3.55
2023-11-30T06:53:39.624Z,2.67
2023-11-30T06:56:14.524Z,4.32
2023-11-30T06:58:46.134Z,3.28
2023-11-30T07:01:17.763Z,3.63
2023-11-30T07:03:49.592Z,4.32
2023-11-30T07:06:22.405Z,4.50
2023-11-30T07:08:54.122Z,5.53
2023-11-30T07:11:25.649Z,6.03
2023-11-30T07:13:57.304Z,4.35
2023-11-30T07:16:29.278Z,5.75
2023-11-30T07:19:01.046Z,5.88
2023-11-30T07:21:32.648Z,4.78
2023-11-30T07:24:04.775Z,5.22
2023-11-30T07:26:36.827Z,4.55
2023-11-30T07:29:08.497Z,5.15
2023-11-30T07:31:40.146Z,4.43
2023-11-30T07:34:11.836Z,2.90
2023-11-30T07:36:43.632Z,7.05
2023-11-30T07:39:15.215Z,4.20
2023-11-30T07:41:46.873Z,8.68
2023-11-30T07:44:18.396Z,6.55
2023-11-30T07:46:49.979Z,4.53
2023-11-30T07:49:21.492Z,3.47
2023-11-30T07:51:53.136Z,4.60
2023-11-30T07:54:25.571Z,3.80
2023-11-30T07:56:57.397Z,6.50
2023-11-30T07:59:29.015Z,3.67
2023-11-30T08:02:01.483Z,4.47
2023-11-30T08:04:33.766Z,5.53
2023-11-30T08:07:05.343Z,4.68
2023-11-30T08:09:36.925Z,4.68
2023-11-30T08:12:08.575Z,4.85
2023-11-30T08:14:40.164Z,3.60
2023-11-30T08:17:11.899Z,4.45
2023-11-30T08:19:44.370Z,5.15
2023-11-30T08:22:16.174Z,4.55
2023-11-30T08:24:47.833Z,4.72
2023-11-30T08:27:19.639Z,5.25
2023-11-30T08:29:51.529Z,7.93
2023-11-30T08:32:23.263Z,4.82
2023-11-30T08:34:54.993Z,6.10
2023-11-30T08:37:26.591Z,5.90
2023-11-30T08:40:00.626Z,5.45
2023-11-30T08:42:32.319Z,5.82
2023-11-30T08:45:06.182Z,6.57
2023-11-30T08:47:37.950Z,6.80
2023-11-30T08:50:10.140Z,5.05
2023-11-30T08:52:41.762Z,9.63
2023-11-30T08:55:13.808Z,6.55
2023-11-30T08:57:45.596Z,5.45
2023-11-30T09:00:20.592Z,5.40
2023-11-30T09:02:52.580Z,10.65
2023-11-30T09:05:24.979Z,8.90
2023-11-30T09:07:56.734Z,6.20
2023-11-30T09:10:28.832Z,6.22
2023-11-30T09:13:03.909Z,4.85
2023-11-30T09:15:35.820Z,5.65
2023-11-30T09:18:09.152Z,6.97
2023-11-30T09:20:40.927Z,6.38
2023-11-30T09:23:12.793Z,9.32
2023-11-30T09:25:44.931Z,8.27
2023-11-30T09:28:19.810Z,8.98
2023-11-30T09:30:57.164Z,6.80
2023-11-30T09:33:39.457Z,6.93
2023-11-30T09:36:17.760Z,6.80
2023-11-30T09:39:11.747Z,7.85
2023-11-30T09:42:22.134Z,7.55
2023-11-30T09:45:09.034Z,6.55
2023-11-30T09:47:44.070Z,6.72
2023-11-30T09:50:24.085Z,6.97
2023-11-30T09:53:04.851Z,6.75
2023-11-30T09:55:40.017Z,7.30
2023-11-30T09:58:12.449Z,8.65
2023-11-30T10:01:23.725Z,9.57
2023-11-30T10:04:25.190Z,7.65
2023-11-30T10:07:13.703Z,5.80
2023-11-30T10:13:09.789Z,6.13
2023-11-30T10:16:25.088Z,7.28
2023-11-30T10:19:14.818Z,7.65
2023-11-30T10:22:02.087Z,8.02
2023-11-30T10:24:49.810Z,7.15
2023-11-30T10:27:23.964Z,11.30
2023-11-30T10:30:03.999Z,6.43
2023-11-30T10:32:47.117Z,8.25
2023-11-30T10:35:21.503Z,8.25
2023-11-30T10:37:55.250Z,7.30
2023-11-30T10:40:37.620Z,10.70
2023-11-30T10:43:13.336Z,8.88
2023-11-30T10:45:47.135Z,8.23
2023-11-30T10:50:53.234Z,8.23
2023-11-30T10:53:44.076Z,7.68
2023-11-30T10:56:19.082Z,6.60
2023-11-30T10:58:54.337Z,8.43
2023-11-30T11:01:28.172Z,8.32
2023-11-30T11:04:00.353Z,6.75
2023-11-30T11:12:51.665Z,6.35
2023-11-30T11:15:35.884Z,5.13
2023-11-30T11:18:14.880Z,5.35
2023-11-30T11:20:59.395Z,5.85
2023-11-30T11:23:50.015Z,4.85
2023-11-30T11:37:06.415Z,5.07
2023-11-30T11:39:38.634Z,5.65
2023-11-30T11:42:10.331Z,4.57
2023-11-30T11:44:42.040Z,5.93
2023-11-30T11:47:13.719Z,4.50
2023-11-30T11:49:46.062Z,6.25
2023-11-30T11:52:22.804Z,5.72
2023-11-30T11:55:05.073Z,6.40
2023-11-30T11:57:39.808Z,6.43
2023-11-30T12:00:19.244Z,5.15
2023-11-30T12:02:52.640Z,6.20
2023-11-30T12:05:27.171Z,6.53
2023-11-30T12:08:02.674Z,3.92
2023-11-30T12:10:43.500Z,5.22
2023-11-30T12:13:16.208Z,5.55
2023-11-30T12:15:50.475Z,4.63
2023-11-30T12:18:22.682Z,4.80
2023-11-30T12:20:54.301Z,5.25
2023-11-30T12:23:25.894Z,6.32
2023-11-30T12:25:57.682Z,7.53
2023-11-30T12:28:39.144Z,5.95
2023-11-30T12:31:10.815Z,5.05
2023-11-30T12:33:42.542Z,4.68
2023-11-30T12:36:15.320Z,5.47
2023-11-30T12:38:47.014Z,9.25
2023-11-30T12:41:18.653Z,5.05
2023-11-30T12:43:50.288Z,6.13
2023-11-30T12:46:21.953Z,7.60
2023-11-30T12:48:54.051Z,5.50
2023-11-30T12:51:26.063Z,5.72
2023-11-30T12:53:57.805Z,5.53
2023-11-30T12:56:29.498Z,5.70
2023-11-30T12:59:01.420Z,5.70
2023-11-30T13:01:33.113Z,6.32
2023-11-30T13:04:05.362Z,7.00
2023-11-30T13:06:37.086Z,6.55
2023-11-30T13:09:15.358Z,6.57
2023-11-30T13:11:47.078Z,6.43
2023-11-30T13:14:19.285Z,10.23
2023-11-30T13:16:51.077Z,7.50
2023-11-30T13:19:24.841Z,9.07
2023-11-30T13:21:57.294Z,8.82
2023-11-30T13:24:29.044Z,8.07
2023-11-30T13:27:00.770Z,7.90
2023-11-30T13:29:32.353Z,6.35
2023-11-30T13:32:05.513Z,6.00
2023-11-30T13:34:38.881Z,6.03
2023-11-30T13:37:10.582Z,5.72
2023-11-30T13:39:42.217Z,6.00
2023-11-30T13:42:13.929Z,6.15
2023-11-30T13:44:45.687Z,9.20
2023-11-30T13:47:18.017Z,7.43
2023-11-30T13:49:49.593Z,5.65
2023-11-30T13:52:21.248Z,6.07
2023-11-30T13:54:52.939Z,9.07
2023-11-30T13:57:24.543Z,7.72
2023-11-30T13:59:57.113Z,9.73
2023-11-30T14:02:28.946Z,8.38
2023-11-30T14:05:00.639Z,6.07
2023-11-30T14:07:34.191Z,5.18
2023-11-30T14:10:11.090Z,4.70
2023-11-30T14:12:43.793Z,5.47
2023-11-30T14:15:15.720Z,7.70
2023-11-30T14:17:47.372Z,6.95
2023-11-30T14:20:21.151Z,7.13
2023-11-30T14:22:53.200Z,10.02
2023-11-30T14:25:26.874Z,9.10
2023-11-30T14:28:03.495Z,8.63
2023-11-30T14:30:39.493Z,7.82
2023-11-30T14:33:13.369Z,9.23
2023-11-30T14:35:45.894Z,13.05
2023-11-30T14:38:17.570Z,8.55
2023-11-30T14:40:49.198Z,11.63
2023-11-30T14:43:20.819Z,11.00
2023-11-30T14:45:52.408Z,9.02
2023-11-30T14:48:26.850Z,9.93
2023-11-30T14:50:58.543Z,9.63
2023-11-30T14:53:30.562Z,10.55
2023-11-30T14:56:03.173Z,9.63
2023-11-30T14:58:34.805Z,10.55
2023-11-30T15:01:11.560Z,9.52
2023-11-30T15:03:43.400Z,7.72
2023-11-30T15:06:15.122Z,12.15
2023-11-30T15:08:46.818Z,16.83
2023-11-30T15:11:18.515Z,15.60
2023-11-30T15:13:50.140Z,12.98
2023-11-30T15:16:23.040Z,11.10
2023-11-30T15:18:54.728Z,8.65
2023-11-30T15:21:26.661Z,10.00
2023-11-30T15:23:58.308Z,9.55
2023-11-30T15:26:29.976Z,10.25
2023-11-30T15:29:01.632Z,8.85
2023-11-30T15:31:33.384Z,9.18
2023-11-30T15:34:05.174Z,7.82
2023-11-30T15:36:37.090Z,6.85
2023-11-30T15:39:17.006Z,7.70
2023-11-30T15:41:48.731Z,6.38
2023-11-30T15:44:20.343Z,9.40
2023-11-30T15:46:51.987Z,10.57
2023-11-30T15:49:24.911Z,11.55
2023-11-30T15:51:56.646Z,10.63
2023-11-30T15:54:28.268Z,10.60
2023-11-30T15:57:00.211Z,11.50
2023-11-30T15:59:31.864Z,10.32
2023-11-30T16:02:03.809Z,12.02
2023-11-30T16:04:36.031Z,10.20
2023-11-30T16:07:07.783Z,9.70
2023-11-30T16:09:39.545Z,10.65
2023-11-30T16:12:11.462Z,10.48
2023-11-30T16:14:43.151Z,10.43
2023-11-30T16:17:14.761Z,10.80
2023-11-30T16:19:46.533Z,9.82
2023-11-30T16:22:18.435Z,11.98
2023-11-30T16:24:50.344Z,10.25
2023-11-30T16:27:22.156Z,14.50
2023-11-30T16:29:54.586Z,10.85
2023-11-30T16:32:26.266Z,13.35
2023-11-30T16:34:57.935Z,12.73
2023-11-30T16:37:29.526Z,9.20
2023-11-30T16:40:01.699Z,12.45
2023-11-30T16:42:33.564Z,12.13
2023-11-30T16:45:07.320Z,10.00
2023-11-30T16:47:39.449Z,9.90
2023-11-30T16:50:15.512Z,11.32
2023-11-30T16:52:48.994Z,11.50
2023-11-30T16:55:22.746Z,7.40
2023-11-30T16:57:54.435Z,8.82
2023-11-30T17:00:26.122Z,11.25
2023-11-30T17:02:58.127Z,10.60
2023-11-30T17:05:30.269Z,12.02
2023-11-30T17:08:02.243Z,10.20
2023-11-30T17:10:33.855Z,16.70
2023-11-30T17:13:05.719Z,16.80
2023-11-30T17:15:37.671Z,14.73
2023-11-30T17:18:09.366Z,13.32
2023-11-30T17:20:42.061Z,11.70
2023-11-30T17:23:13.985Z,11.82
2023-11-30T17:25:45.609Z,13.02
2023-11-30T17:28:17.223Z,11.95
2023-11-30T17:30:48.901Z,16.23
2023-11-30T17:33:20.726Z,15.40
2023-11-30T17:35:52.570Z,13.07
2023-11-30T17:38:24.246Z,13.57
2023-11-30T17:40:55.902Z,13.20
2023-11-30T17:43:27.570Z,13.38
2023-11-30T17:45:59.346Z,15.18
2023-11-30T17:48:31.049Z,16.55
2023-11-30T17:51:02.663Z,15.75
2023-11-30T17:53:35.802Z,21.75
2023-11-30T17:56:08.066Z,20.08
2023-11-30T17:58:39.789Z,16.00
2023-11-30T18:01:11.481Z,14.77
2023-11-30T18:03:43.234Z,12.57
2023-11-30T18:06:14.948Z,14.60
2023-11-30T18:08:47.266Z,14.20
2023-11-30T18:11:19.286Z,16.38
2023-11-30T18:13:51.026Z,16.65
2023-11-30T18:16:22.744Z,20.35
2023-11-30T18:18:55.510Z,19.73
2023-11-30T18:21:30.109Z,16.33
2023-11-30T18:24:01.940Z,13.80
2023-11-30T18:26:33.520Z,13.20
2023-11-30T18:29:05.110Z,16.20
2023-11-30T18:31:37.497Z,16.52
2023-11-30T18:34:09.360Z,17.45
2023-11-30T18:36:41.164Z,15.32
2023-11-30T18:39:14.550Z,16.25
2023-11-30T18:41:46.250Z,14.43
2023-11-30T18:44:18.005Z,14.50
2023-11-30T18:46:49.798Z,16.63
2023-11-30T18:49:21.528Z,13.80
2023-11-30T18:51:53.298Z,15.93
2023-11-30T18:54:25.162Z,13.73
2023-11-30T18:56:56.863Z,14.38
2023-11-30T18:59:28.982Z,15.98
2023-11-30T19:02:00.784Z,14.15
2023-11-30T19:04:33.676Z,19.45
2023-11-30T19:07:05.376Z,18.13
2023-11-30T19:09:37.216Z,16.88
2023-11-30T19:12:09.668Z,17.08
2023-11-30T19:14:41.313Z,16.17
2023-11-30T19:17:12.952Z,17.52
2023-11-30T19:19:44.894Z,19.08
2023-11-30T19:22:18.322Z,17.40
2023-11-30T19:24:50.191Z,19.05
2023-11-30T19:27:21.853Z,18.40
2023-11-30T19:29:53.479Z,18.15
2023-11-30T19:32:25.120Z,18.85
2023-11-30T19:34:56.723Z,19.63
2023-11-30T19:37:28.423Z,17.58
2023-11-30T19:40:02.074Z,20.40
2023-11-30T19:42:34.018Z,17.73
2023-11-30T19:45:06.409Z,16.63
2023-11-30T19:47:38.137Z,18.17
2023-11-30T19:50:10.930Z,16.88
2023-11-30T19:52:42.723Z,17.45
2023-11-30T19:55:14.492Z,16.13
2023-11-30T19:57:46.854Z,21.63
2023-11-30T20:00:18.920Z,17.70
2023-11-30T20:02:50.543Z,21.83
2023-11-30T20:05:23.414Z,17.33
2023-11-30T20:07:55.026Z,14.52
2023-11-30T20:10:27.049Z,14.38
2023-11-30T20:12:58.790Z,14.13
2023-11-30T20:15:31.576Z,12.52
2023-11-30T20:18:05.127Z,13.32
2023-11-30T20:20:36.828Z,14.40
2023-11-30T20:23:08.485Z,12.40
2023-11-30T20:25:40.083Z,17.73
2023-11-30T20:28:11.805Z,13.98
2023-11-30T20:30:43.492Z,14.70
2023-11-30T20:33:15.183Z,16.23
2023-11-30T20:35:46.780Z,14.30
2023-11-30T20:38:18.421Z,15.93
2023-11-30T20:40:51.518Z,14.40
2023-11-30T20:43:23.111Z,15.90
2023-11-30T20:45:54.797Z,15.40
2023-11-30T20:48:26.581Z,14.05
2023-11-30T20:50:58.130Z,14.80
2023-11-30T20:53:29.748Z,12.40
2023-11-30T20:56:01.496Z,13.80
2023-11-30T20:58:33.201Z,15.23
2023-11-30T21:01:05.494Z,17.15
2023-11-30T21:03:37.365Z,18.17
2023-11-30T21:06:09.862Z,19.42
2023-11-30T21:08:41.530Z,18.23
2023-11-30T21:11:14.793Z,25.98
2023-11-30T21:13:46.440Z,23.00
2023-11-30T21:16:19.561Z,18.48
2023-11-30T21:18:51.597Z,16.85
2023-11-30T21:21:23.363Z,18.00
2023-11-30T21:23:55.146Z,18.45
2023-11-30T21:26:26.832Z,15.52
2023-11-30T21:28:58.496Z,14.77
2023-11-30T21:31:30.583Z,17.08
2023-11-30T21:34:02.383Z,15.88
2023-11-30T21:36:34.114Z,15.55
2023-11-30T21:39:05.777Z,14.75
2023-11-30T21:41:37.434Z,17.73
2023-11-30T21:44:09.122Z,14.70
2023-11-30T21:46:40.779Z,10.52
2023-11-30T21:49:14.344Z,12.65
2023-11-30T21:51:45.967Z,15.00
2023-11-30T21:54:17.588Z,14.32
2023-11-30T21:56:49.239Z,14.38
2023-11-30T21:59:20.919Z,12.10
2023-11-30T22:01:52.782Z,14.93
2023-11-30T22:04:24.591Z,14.70
2023-11-30T22:06:56.768Z,13.95
2023-11-30T22:09:29.115Z,14.35
2023-11-30T22:12:04.324Z,13.35
2023-11-30T22:14:36.190Z,14.35
2023-11-30T22:17:07.888Z,12.48
2023-11-30T22:19:39.659Z,13.05
2023-11-30T22:22:11.405Z,14.35
2023-11-30T22:24:43.076Z,14.02
2023-11-30T22:27:14.740Z,10.75
2023-11-30T22:29:46.460Z,11.45
2023-11-30T22:32:18.136Z,13.30
2023-11-30T22:34:49.816Z,12.85
2023-11-30T22:37:21.609Z,16.38
2023-11-30T22:39:53.393Z,13.55
2023-11-30T22:42:27.039Z,14.68
2023-11-30T22:44:59.569Z,16.63
2023-11-30T22:47:31.301Z,14.82
2023-11-30T22:50:05.073Z,17.13
2023-11-30T22:52:36.894Z,13.75
2023-11-30T22:55:09.662Z,15.18
2023-11-30T22:57:41.420Z,16.30
2023-11-30T23:00:21.136Z,11.77
2023-11-30T23:02:53.677Z,17.50
2023-11-30T23:05:25.549Z,13.10
2023-11-30T23:07:57.537Z,16.60
2023-11-30T23:10:29.137Z,16.77
2023-11-30T23:13:01.246Z,14.98
2023-11-30T23:15:33.088Z,16.05
2023-11-30T23:18:04.892Z,14.18
2023-11-30T23:20:36.588Z,16.27
2023-11-30T23:23:08.227Z,14.93
2023-11-30T23:25:39.858Z,15.82
2023-11-30T23:28:11.614Z,15.25
2023-11-30T23:30:43.529Z,12.88
2023-11-30T23:33:15.355Z,13.95
2023-11-30T23:35:47.255Z,14.68
2023-11-30T23:38:19.048Z,12.70
2023-11-30T23:40:50.738Z,12.07
2023-11-30T23:43:22.409Z,11.80
2023-11-30T23:45:54.035Z,10.23
2023-11-30T23:48:25.795Z,12.80
2023-11-30T23:50:57.413Z,11.30
2023-11-30T23:53:29.221Z,14.45
2023-11-30T23:56:00.842Z,13.82
2023-11-30T23:58:32.525Z,12.35
